createdAt,value
2023-04-18T00:01:44.844Z,43.53
2023-04-18T00:03:50.145Z,46.08
2023-04-18T00:05:55.402Z,39.70
2023-04-18T00:08:00.892Z,40.00
2023-04-18T00:10:06.634Z,40.65
2023-04-18T00:12:11.749Z,43.50
2023-04-18T00:14:16.863Z,39.38
2023-04-18T00:16:27.411Z,38.90
2023-04-18T00:18:32.371Z,44.83
2023-04-18T00:20:39.174Z,41.55
2023-04-18T00:22:46.809Z,39.30
2023-04-18T00:24:55.058Z,49.15
2023-04-18T00:27:00.141Z,47.20
2023-04-18T00:29:08.750Z,45.28
2023-04-18T00:31:23.561Z,44.42
2023-04-18T00:33:31.434Z,44.33
2023-04-18T00:35:38.588Z,42.65
2023-04-18T00:37:43.472Z,45.22
2023-04-18T00:39:49.089Z,47.92
2023-04-18T00:41:56.117Z,49.35
2023-04-18T00:44:02.678Z,44.55
2023-04-18T00:46:08.025Z,47.42
2023-04-18T00:48:14.093Z,40.88
2023-04-18T00:50:23.913Z,41.00
2023-04-18T00:52:36.597Z,40.10
2023-04-18T00:54:42.994Z,48.53
2023-04-18T00:56:50.506Z,45.38
2023-04-18T00:58:57.468Z,42.95
2023-04-18T01:01:04.252Z,45.63
2023-04-18T01:03:11.019Z,40.60
2023-04-18T01:05:16.609Z,40.45
2023-04-18T01:07:26.762Z,42.22
2023-04-18T01:09:37.801Z,40.55
2023-04-18T01:11:55.097Z,40.08
2023-04-18T01:14:14.889Z,39.40
2023-04-18T01:16:23.094Z,45.45
2023-04-18T01:18:34.384Z,39.00
2023-04-18T01:20:42.859Z,38.45
2023-04-18T01:22:52.891Z,38.67
2023-04-18T01:25:02.164Z,38.55
2023-04-18T01:27:09.025Z,34.60
2023-04-18T01:29:16.196Z,38.50
2023-04-18T01:31:26.929Z,39.67
2023-04-18T01:33:32.110Z,42.72
2023-04-18T01:35:39.663Z,35.45
2023-04-18T01:37:44.624Z,33.65
2023-04-18T01:39:50.744Z,37.42
2023-04-18T01:41:58.258Z,35.88
2023-04-18T01:44:04.453Z,36.95
2023-04-18T01:46:09.471Z,32.55
2023-04-18T01:48:14.706Z,35.10
2023-04-18T01:50:20.241Z,29.90
2023-04-18T01:52:28.434Z,29.88
2023-04-18T01:54:34.176Z,34.88
2023-04-18T01:56:39.241Z,35.15
2023-04-18T01:58:47.049Z,24.50
2023-04-18T02:00:55.032Z,32.10
2023-04-18T02:03:02.517Z,29.63
2023-04-18T02:05:09.709Z,31.40
2023-04-18T02:07:15.051Z,30.02
2023-04-18T02:09:19.980Z,26.83
2023-04-18T02:11:28.008Z,29.00
2023-04-18T02:13:33.151Z,27.15
2023-04-18T02:15:44.139Z,27.73
2023-04-18T02:17:49.450Z,27.70
2023-04-18T02:19:54.501Z,24.95
2023-04-18T02:21:59.641Z,25.42
2023-04-18T02:24:05.630Z,24.23
2023-04-18T02:26:10.674Z,26.42
2023-04-18T02:28:15.611Z,25.60
2023-04-18T02:30:20.762Z,25.25
2023-04-18T02:32:30.460Z,27.48
2023-04-18T02:34:35.759Z,23.60
2023-04-18T02:36:41.889Z,23.90
2023-04-18T02:38:50.421Z,22.20
2023-04-18T02:40:56.338Z,24.60
2023-04-18T02:43:02.419Z,20.38
2023-04-18T02:45:10.211Z,24.63
2023-04-18T02:47:15.533Z,19.88
2023-04-18T02:49:25.184Z,23.10
2023-04-18T02:51:30.326Z,26.15
2023-04-18T02:53:36.674Z,24.67
2023-04-18T02:55:42.044Z,22.75
2023-04-18T02:57:49.623Z,21.00
2023-04-18T02:59:54.780Z,21.98
2023-04-18T03:01:59.864Z,21.65
2023-04-18T03:04:06.430Z,22.13
2023-04-18T03:06:19.052Z,21.17
2023-04-18T03:08:24.492Z,19.38
2023-04-18T03:10:29.504Z,19.38
2023-04-18T03:12:34.871Z,19.00
2023-04-18T03:14:39.991Z,20.08
2023-04-18T03:16:45.338Z,22.70
2023-04-18T03:18:50.418Z,22.08
2023-04-18T03:20:55.453Z,24.63
2023-04-18T03:23:03.039Z,22.85
2023-04-18T03:25:10.688Z,17.95
2023-04-18T03:27:19.205Z,20.83
2023-04-18T03:29:26.917Z,20.67
2023-04-18T03:31:34.579Z,20.63
2023-04-18T03:33:39.715Z,23.08
2023-04-18T03:35:44.854Z,24.10
2023-04-18T03:37:50.068Z,20.45
2023-04-18T03:39:57.961Z,21.40
2023-04-18T03:42:03.197Z,20.08
2023-04-18T03:44:09.588Z,18.95
2023-04-18T03:46:14.599Z,21.88
2023-04-18T03:48:19.924Z,19.77
2023-04-18T03:50:25.937Z,24.38
2023-04-18T03:52:31.223Z,17.73
2023-04-18T03:54:36.825Z,20.55
2023-04-18T03:56:44.814Z,20.20
2023-04-18T03:58:50.043Z,19.35
2023-04-18T04:00:55.479Z,16.77
2023-04-18T04:03:00.869Z,18.13
2023-04-18T04:05:06.276Z,23.77
2023-04-18T04:07:12.335Z,17.98
2023-04-18T04:09:20.291Z,18.05
2023-04-18T04:11:26.308Z,20.77
2023-04-18T04:13:35.164Z,21.25
2023-04-18T04:15:41.308Z,18.90
2023-04-18T04:17:46.330Z,18.88
2023-04-18T04:19:53.436Z,17.75
2023-04-18T04:21:58.510Z,21.58
2023-04-18T04:24:04.305Z,21.23
2023-04-18T04:26:09.983Z,18.63
2023-04-18T04:28:15.089Z,19.90
2023-04-18T04:30:28.933Z,15.73
2023-04-18T04:32:35.091Z,18.70
2023-04-18T04:34:41.683Z,19.65
2023-04-18T04:36:49.454Z,16.33
2023-04-18T04:38:54.490Z,23.63
2023-04-18T04:41:03.109Z,20.38
2023-04-18T04:43:12.964Z,19.05
2023-04-18T04:45:23.579Z,21.90
2023-04-18T04:47:31.710Z,21.50
2023-04-18T04:49:36.800Z,21.08
2023-04-18T04:51:41.996Z,21.77
2023-04-18T04:53:48.504Z,21.75
2023-04-18T04:55:54.187Z,19.98
2023-04-18T04:57:59.251Z,17.83
2023-04-18T05:00:06.402Z,17.90
2023-04-18T05:02:14.277Z,24.27
2023-04-18T05:04:21.529Z,17.65
2023-04-18T05:06:27.863Z,17.73
2023-04-18T05:08:32.833Z,18.92
2023-04-18T05:10:41.753Z,17.90
2023-04-18T05:12:46.780Z,19.38
2023-04-18T05:14:52.917Z,19.38
2023-04-18T05:16:58.945Z,21.02
2023-04-18T05:19:06.562Z,21.33
2023-04-18T05:21:11.457Z,18.10
2023-04-18T05:23:16.487Z,24.38
2023-04-18T05:25:24.720Z,19.50
2023-04-18T05:27:30.548Z,19.20
2023-04-18T05:29:36.108Z,23.55
2023-04-18T05:31:44.307Z,18.63
2023-04-18T05:33:49.410Z,17.80
2023-04-18T05:35:57.434Z,17.70
2023-04-18T05:38:02.806Z,20.88
2023-04-18T05:40:10.672Z,20.48
2023-04-18T05:42:15.913Z,19.38
2023-04-18T05:44:24.770Z,19.00
2023-04-18T05:46:30.009Z,17.33
2023-04-18T05:48:39.417Z,25.70
2023-04-18T05:50:44.654Z,20.95
2023-04-18T05:52:52.840Z,20.48
2023-04-18T05:54:57.969Z,19.25
2023-04-18T05:57:04.789Z,20.15
2023-04-18T05:59:10.200Z,18.45
2023-04-18T06:01:16.576Z,20.02
2023-04-18T06:03:24.039Z,22.45
2023-04-18T06:05:29.710Z,20.05
2023-04-18T06:07:36.082Z,22.25
2023-04-18T06:09:44.126Z,18.08
2023-04-18T06:11:49.887Z,18.45
2023-04-18T06:13:56.337Z,21.33
2023-04-18T06:16:01.674Z,19.85
2023-04-18T06:18:07.120Z,21.30
2023-04-18T06:20:13.301Z,21.50
2023-04-18T06:22:19.795Z,20.58
2023-04-18T06:24:24.862Z,19.60
2023-04-18T06:26:33.373Z,22.15
2023-04-18T06:28:39.177Z,19.85
2023-04-18T06:30:44.475Z,23.15
2023-04-18T06:32:49.735Z,20.55
2023-04-18T06:34:54.906Z,20.95
2023-04-18T06:36:59.923Z,25.02
2023-04-18T06:39:06.546Z,19.60
2023-04-18T06:41:11.648Z,19.80
2023-04-18T06:43:19.682Z,18.23
2023-04-18T06:45:24.877Z,21.65
2023-04-18T06:47:30.047Z,23.17
2023-04-18T06:49:36.630Z,18.98
2023-04-18T06:51:41.914Z,18.23
2023-04-18T06:53:50.612Z,21.10
2023-04-18T06:55:55.946Z,23.35
2023-04-18T06:58:01.100Z,23.88
2023-04-18T07:00:10.636Z,16.70
2023-04-18T07:02:15.791Z,21.35
2023-04-18T07:04:21.072Z,18.40
2023-04-18T07:06:26.476Z,16.67
2023-04-18T07:08:31.535Z,18.83
2023-04-18T07:10:36.642Z,20.58
2023-04-18T07:12:41.658Z,20.67
2023-04-18T07:14:49.276Z,21.83
2023-04-18T07:16:57.950Z,20.92
2023-04-18T07:19:04.584Z,17.98
2023-04-18T07:21:10.182Z,17.58
2023-04-18T07:23:15.340Z,22.08
2023-04-18T07:25:20.581Z,25.50
2023-04-18T07:27:26.260Z,21.38
2023-04-18T07:29:31.614Z,20.00
2023-04-18T07:31:38.606Z,18.20
2023-04-18T07:33:46.477Z,19.65
2023-04-18T07:35:54.906Z,19.67
2023-04-18T07:38:00.292Z,18.45
2023-04-18T07:40:06.142Z,19.80
2023-04-18T07:42:11.619Z,22.15
2023-04-18T07:44:16.986Z,19.83
2023-04-18T07:46:24.930Z,21.73
2023-04-18T07:48:30.163Z,22.17
2023-04-18T07:50:39.380Z,18.65
2023-04-18T07:52:50.754Z,20.77
2023-04-18T07:54:56.114Z,21.17
2023-04-18T07:57:02.481Z,21.85
2023-04-18T07:59:07.658Z,19.40
2023-04-18T08:01:15.912Z,15.13
2023-04-18T08:03:22.811Z,18.25
2023-04-18T08:05:28.188Z,19.77
2023-04-18T08:07:36.628Z,19.90
2023-04-18T08:09:42.200Z,21.17
2023-04-18T08:11:47.463Z,19.08
2023-04-18T08:13:53.090Z,19.95
2023-04-18T08:16:00.155Z,19.15
2023-04-18T08:18:06.352Z,20.95
2023-04-18T08:20:13.330Z,20.50
2023-04-18T08:22:19.654Z,18.50
2023-04-18T08:24:27.775Z,20.75
2023-04-18T08:26:32.984Z,19.60
2023-04-18T08:28:46.605Z,23.23
2023-04-18T08:31:00.814Z,22.15
2023-04-18T08:33:06.443Z,19.95
2023-04-18T08:35:12.247Z,17.45
2023-04-18T08:37:18.048Z,15.95
2023-04-18T08:39:24.874Z,17.73
2023-04-18T08:41:40.202Z,21.30
2023-04-18T08:43:45.305Z,18.33
2023-04-18T08:45:50.508Z,20.30
2023-04-18T08:47:56.247Z,20.25
2023-04-18T08:50:01.568Z,16.23
2023-04-18T08:52:12.803Z,18.20
2023-04-18T08:54:22.696Z,16.45
2023-04-18T08:56:27.752Z,19.02
2023-04-18T08:58:38.379Z,16.65
2023-04-18T09:00:46.421Z,15.68
2023-04-18T09:02:57.251Z,17.70
2023-04-18T09:05:02.986Z,14.88
2023-04-18T09:07:10.270Z,15.23
2023-04-18T09:09:16.908Z,15.88
2023-04-18T09:11:29.559Z,18.83
2023-04-18T09:13:48.037Z,18.83
2023-04-18T09:15:59.483Z,17.38
2023-04-18T09:18:06.121Z,16.48
2023-04-18T09:20:13.105Z,15.40
2023-04-18T09:22:19.608Z,15.90
2023-04-18T09:24:27.474Z,17.55
2023-04-18T09:26:37.303Z,16.85
2023-04-18T09:28:45.424Z,15.55
2023-04-18T09:30:51.735Z,16.63
2023-04-18T09:33:01.794Z,18.13
2023-04-18T09:35:09.827Z,16.92
2023-04-18T09:37:15.949Z,18.60
2023-04-18T09:39:30.279Z,16.05
2023-04-18T09:41:35.943Z,18.65
2023-04-18T09:43:41.277Z,15.90
2023-04-18T09:45:50.583Z,19.23
2023-04-18T09:47:56.510Z,17.92
2023-04-18T09:50:01.714Z,15.15
2023-04-18T09:52:11.202Z,14.32
2023-04-18T09:54:21.558Z,16.83
2023-04-18T09:56:28.870Z,18.15
2023-04-18T09:58:36.836Z,14.88
2023-04-18T10:00:45.013Z,20.40
2023-04-18T10:02:59.637Z,17.15
2023-04-18T10:05:08.481Z,22.13
2023-04-18T10:07:14.563Z,14.57
2023-04-18T10:09:20.154Z,17.13
2023-04-18T10:11:26.457Z,12.90
2023-04-18T10:13:32.657Z,15.77
2023-04-18T10:15:38.903Z,16.08
2023-04-18T10:18:02.869Z,13.85
2023-04-18T10:20:20.693Z,20.73
2023-04-18T10:22:31.063Z,18.52
2023-04-18T10:24:53.802Z,15.68
2023-04-18T10:26:59.450Z,13.77
2023-04-18T10:29:04.961Z,18.17
2023-04-18T10:31:10.274Z,15.65
2023-04-18T10:33:31.992Z,16.45
2023-04-18T10:35:58.828Z,15.57
2023-04-18T10:38:05.990Z,18.17
2023-04-18T10:40:12.773Z,17.23
2023-04-18T10:42:20.238Z,14.50
2023-04-18T10:44:27.259Z,13.75
2023-04-18T10:46:33.026Z,14.68
2023-04-18T10:48:40.533Z,13.52
2023-04-18T10:51:15.350Z,12.23
2023-04-18T10:53:23.481Z,13.38
2023-04-18T10:55:31.839Z,12.82
2023-04-18T10:58:28.375Z,13.25
2023-04-18T11:00:40.962Z,13.48
2023-04-18T11:03:08.226Z,13.85
2023-04-18T11:05:37.756Z,13.38
2023-04-18T11:07:54.477Z,10.98
2023-04-18T11:10:26.560Z,10.48
2023-04-18T11:13:29.193Z,11.85
2023-04-18T11:15:43.976Z,10.20
2023-04-18T11:18:05.183Z,11.25
2023-04-18T11:20:23.476Z,9.77
2023-04-18T11:22:44.953Z,7.90
2023-04-18T11:25:02.210Z,14.85
2023-04-18T11:27:16.514Z,10.95
2023-04-18T11:30:19.694Z,8.57
2023-04-18T11:32:36.858Z,7.55
2023-04-18T11:35:13.159Z,10.73
2023-04-18T11:37:35.280Z,11.77
2023-04-18T11:40:04.514Z,7.32
2023-04-18T11:42:16.200Z,8.57
2023-04-18T11:44:57.344Z,8.32
2023-04-18T11:49:49.234Z,11.35
2023-04-18T11:52:26.821Z,11.43
2023-04-18T11:55:30.259Z,11.25
2023-04-18T11:57:46.126Z,12.23
2023-04-18T12:00:13.587Z,12.85
2023-04-18T12:02:35.033Z,12.23
2023-04-18T12:05:20.599Z,12.68
2023-04-18T12:07:52.359Z,11.70
2023-04-18T12:10:04.438Z,10.05
2023-04-18T12:12:10.461Z,10.82
2023-04-18T12:14:34.445Z,10.15
2023-04-18T12:16:43.693Z,10.65
2023-04-18T12:18:55.265Z,10.60
2023-04-18T12:21:02.305Z,12.10
2023-04-18T12:23:26.130Z,10.48
2023-04-18T12:25:41.085Z,10.70
2023-04-18T12:27:59.932Z,10.65
2023-04-18T12:30:26.245Z,12.10
2023-04-18T12:32:55.247Z,10.20
2023-04-18T12:35:06.765Z,11.07
2023-04-18T12:37:32.678Z,10.07
2023-04-18T12:39:45.153Z,8.40
2023-04-18T12:42:01.068Z,8.77
2023-04-18T12:44:13.003Z,10.23
2023-04-18T12:46:32.594Z,10.00
2023-04-18T12:49:00.708Z,8.75
2023-04-18T12:51:23.962Z,9.00
2023-04-18T12:53:44.954Z,9.88
2023-04-18T12:56:02.710Z,8.25
2023-04-18T12:58:26.748Z,9.07
2023-04-18T13:00:36.860Z,11.73
2023-04-18T13:02:55.465Z,11.25
2023-04-18T13:05:12.796Z,9.55
2023-04-18T13:07:30.542Z,10.32
2023-04-18T13:09:44.441Z,10.20
2023-04-18T13:12:00.695Z,9.73
2023-04-18T13:16:49.678Z,14.60
2023-04-18T13:19:02.847Z,12.40
2023-04-18T13:23:30.729Z,12.90
2023-04-18T13:25:44.828Z,12.60
2023-04-18T13:28:02.098Z,11.15
2023-04-18T13:30:25.115Z,13.25
2023-04-18T13:32:43.231Z,14.77
2023-04-18T13:35:11.038Z,15.98
2023-04-18T13:37:24.926Z,15.10
2023-04-18T13:40:00.466Z,12.60
2023-04-18T13:42:29.119Z,13.75
2023-04-18T13:44:50.154Z,15.10
2023-04-18T13:46:57.255Z,13.77
2023-04-18T13:49:15.104Z,14.45
2023-04-18T13:51:35.563Z,15.32
2023-04-18T13:53:58.141Z,13.88
2023-04-18T13:56:19.232Z,13.40
2023-04-18T13:58:44.053Z,13.00
2023-04-18T14:00:53.731Z,13.35
2023-04-18T14:03:06.058Z,11.90
2023-04-18T14:05:14.476Z,14.32
2023-04-18T14:07:34.537Z,13.23
2023-04-18T14:10:12.813Z,16.13
2023-04-18T14:15:35.692Z,12.80
2023-04-18T14:17:51.160Z,12.35
2023-04-18T14:20:25.964Z,16.02
2023-04-18T14:23:00.514Z,12.20
2023-04-18T14:27:29.007Z,15.75
2023-04-18T14:29:37.446Z,14.63
2023-04-18T14:31:54.225Z,15.15
2023-04-18T14:34:08.786Z,13.85
2023-04-18T14:36:23.292Z,15.52
2023-04-18T14:38:35.728Z,16.13
2023-04-18T14:40:58.262Z,12.80
2023-04-18T14:43:09.158Z,13.95
2023-04-18T14:45:19.047Z,15.63
2023-04-18T14:47:31.562Z,14.90
2023-04-18T14:49:41.742Z,13.85
2023-04-18T14:51:50.250Z,15.30
2023-04-18T14:54:06.360Z,13.52
2023-04-18T14:56:22.642Z,16.15
2023-04-18T14:58:32.995Z,16.30
2023-04-18T15:00:39.656Z,14.75
2023-04-18T15:03:06.702Z,16.08
2023-04-18T15:05:26.492Z,16.35
2023-04-18T15:07:36.638Z,16.15
2023-04-18T15:09:49.225Z,15.90
2023-04-18T15:11:58.392Z,15.85
2023-04-18T15:14:12.893Z,17.85
2023-04-18T15:16:24.358Z,18.65
2023-04-18T15:18:58.822Z,16.55
2023-04-18T15:21:08.977Z,17.02
2023-04-18T15:23:21.964Z,15.40
2023-04-18T15:25:35.767Z,18.42
2023-04-18T15:27:50.802Z,19.08
2023-04-18T15:29:57.073Z,16.52
2023-04-18T15:32:21.695Z,18.48
2023-04-18T15:34:36.526Z,17.80
2023-04-18T15:37:03.437Z,19.42
2023-04-18T15:39:20.717Z,20.08
2023-04-18T15:41:30.818Z,18.45
2023-04-18T15:43:35.794Z,18.20
2023-04-18T15:45:44.758Z,17.20
2023-04-18T15:47:50.061Z,18.55
2023-04-18T15:49:55.014Z,17.42
2023-04-18T15:51:59.847Z,20.30
2023-04-18T15:54:06.179Z,16.50
2023-04-18T15:56:11.200Z,19.25
2023-04-18T15:58:20.882Z,18.98
2023-04-18T16:00:26.739Z,15.80
2023-04-18T16:02:32.890Z,21.90
2023-04-18T16:04:39.883Z,19.85
2023-04-18T16:06:44.990Z,17.60
2023-04-18T16:08:53.352Z,19.50
2023-04-18T16:10:58.142Z,16.58
2023-04-18T16:13:04.350Z,16.85
2023-04-18T16:15:16.341Z,17.25
2023-04-18T16:17:26.506Z,13.23
2023-04-18T16:19:33.907Z,18.02
2023-04-18T16:21:44.645Z,16.33
2023-04-18T16:24:29.820Z,16.98
2023-04-18T16:29:44.848Z,15.65
2023-04-18T16:31:58.454Z,16.95
2023-04-18T16:34:07.792Z,16.25
2023-04-18T16:36:23.401Z,16.38
2023-04-18T16:41:56.486Z,16.27
2023-04-18T16:44:25.504Z,20.23
2023-04-18T16:46:55.692Z,16.52
2023-04-18T17:00:23.779Z,17.17
2023-04-18T17:02:45.366Z,16.00
2023-04-18T17:05:43.488Z,16.35
2023-04-18T17:10:48.886Z,16.25
2023-04-18T17:13:00.206Z,17.02
2023-04-18T17:15:11.457Z,18.05
2023-04-18T17:17:40.932Z,16.58
2023-04-18T17:20:11.223Z,16.05
2023-04-18T17:25:32.477Z,15.15
2023-04-18T17:28:24.094Z,15.73
2023-04-18T17:30:54.116Z,14.35
2023-04-18T17:33:21.442Z,14.63
2023-04-18T17:35:56.274Z,16.40
2023-04-18T17:38:13.160Z,15.88
2023-04-18T17:40:52.239Z,18.75
2023-04-18T17:43:55.087Z,15.82
2023-04-18T17:49:27.414Z,16.52
2023-04-18T18:00:43.226Z,18.00
2023-04-18T18:06:12.693Z,16.13
2023-04-18T18:08:50.141Z,14.18
2023-04-18T18:11:43.864Z,17.52
2023-04-18T18:20:18.615Z,16.50
2023-04-18T18:25:43.198Z,15.50
2023-04-18T18:28:09.864Z,16.80
2023-04-18T18:30:38.752Z,15.60
2023-04-18T18:33:07.114Z,15.90
2023-04-18T18:35:36.927Z,17.60
2023-04-18T18:37:42.567Z,16.40
2023-04-18T18:40:22.625Z,17.67
2023-04-18T18:45:49.845Z,15.70
2023-04-18T18:48:23.747Z,16.27
2023-04-18T18:53:18.623Z,15.63
2023-04-18T18:55:37.714Z,16.73
2023-04-18T18:58:10.745Z,16.27
2023-04-18T19:00:41.095Z,16.77
2023-04-18T19:03:08.293Z,17.02
2023-04-18T19:05:53.388Z,17.80
2023-04-18T19:08:26.844Z,17.40
2023-04-18T19:11:32.164Z,17.30
2023-04-18T19:13:37.193Z,18.65
2023-04-18T19:15:42.211Z,18.58
2023-04-18T19:17:49.908Z,18.45
2023-04-18T19:19:58.092Z,21.83
2023-04-18T19:22:03.191Z,15.88
2023-04-18T19:24:12.013Z,18.17
2023-04-18T19:26:18.711Z,17.77
2023-04-18T19:28:40.419Z,16.38
2023-04-18T19:31:00.538Z,18.65
2023-04-18T19:33:42.161Z,16.90
2023-04-18T19:41:46.163Z,19.80
2023-04-18T19:44:32.266Z,21.75
2023-04-18T19:47:07.669Z,18.23
2023-04-18T19:49:58.487Z,18.05
2023-04-18T19:52:28.317Z,17.08
2023-04-18T19:55:13.037Z,18.27
2023-04-18T19:58:23.706Z,14.52
2023-04-18T20:01:02.000Z,17.00
2023-04-18T20:06:21.155Z,16.75
2023-04-18T20:12:09.442Z,16.80
2023-04-18T20:17:20.849Z,19.52
2023-04-18T20:20:11.139Z,17.85
2023-04-18T20:22:55.688Z,16.08
2023-04-18T20:28:22.398Z,19.48
2023-04-18T20:30:29.217Z,17.15
2023-04-18T20:32:43.486Z,17.98
2023-04-18T20:34:50.206Z,16.42
2023-04-18T20:37:45.248Z,20.00
2023-04-18T20:40:46.977Z,18.05
2023-04-18T20:43:33.989Z,16.83
2023-04-18T20:58:41.989Z,17.90
2023-04-18T21:01:30.226Z,15.80
2023-04-18T21:03:38.440Z,17.13
2023-04-18T21:05:46.122Z,18.20
2023-04-18T21:07:54.551Z,16.20
2023-04-18T21:10:03.173Z,19.08
2023-04-18T21:12:11.979Z,18.67
2023-04-18T21:14:24.887Z,16.75
2023-04-18T21:16:39.993Z,17.42
2023-04-18T21:18:45.647Z,16.92
2023-04-18T21:20:53.302Z,16.95
2023-04-18T21:23:02.112Z,17.55
2023-04-18T21:25:07.862Z,12.27
2023-04-18T21:27:13.491Z,17.75
2023-04-18T21:29:24.732Z,14.82
2023-04-18T21:31:31.891Z,15.43
2023-04-18T21:33:38.658Z,17.30
2023-04-18T21:35:44.118Z,15.57
2023-04-18T21:37:55.928Z,15.02
2023-04-18T21:40:00.820Z,14.48
2023-04-18T21:42:05.631Z,16.30
2023-04-18T21:44:12.065Z,15.07
2023-04-18T21:46:20.164Z,14.70
2023-04-18T21:48:25.270Z,14.32
2023-04-18T21:50:30.274Z,14.75
2023-04-18T21:52:36.796Z,17.33
2023-04-18T21:54:42.237Z,15.75
2023-04-18T21:56:47.214Z,15.73
2023-04-18T21:58:53.046Z,14.63
2023-04-18T22:00:58.066Z,14.07
2023-04-18T22:03:06.645Z,15.80
2023-04-18T22:05:13.095Z,15.32
2023-04-18T22:07:19.353Z,15.93
2023-04-18T22:09:24.809Z,15.32
2023-04-18T22:11:30.100Z,13.35
2023-04-18T22:13:35.951Z,17.08
2023-04-18T22:15:42.771Z,13.77
2023-04-18T22:17:50.338Z,13.55
2023-04-18T22:19:58.431Z,14.82
2023-04-18T22:22:03.268Z,16.08
2023-04-18T22:24:19.886Z,12.90
2023-04-18T22:26:28.526Z,15.15
2023-04-18T22:28:34.276Z,14.38
2023-04-18T22:30:42.282Z,13.45
2023-04-18T22:32:51.244Z,13.05
2023-04-18T22:34:59.923Z,14.95
2023-04-18T22:37:06.144Z,11.20
2023-04-18T22:39:12.324Z,14.48
2023-04-18T22:41:19.929Z,14.13
2023-04-18T22:43:25.838Z,14.25
2023-04-18T22:45:30.806Z,13.88
2023-04-18T22:47:36.779Z,14.23
2023-04-18T22:49:42.407Z,15.25
2023-04-18T22:51:50.052Z,13.50
2023-04-18T22:53:55.300Z,14.18
2023-04-18T22:56:00.483Z,15.60
2023-04-18T22:58:07.566Z,14.15
2023-04-18T23:00:14.210Z,15.13
2023-04-18T23:02:19.838Z,15.43
2023-04-18T23:04:24.831Z,13.70
2023-04-18T23:06:30.409Z,12.90
2023-04-18T23:08:38.339Z,14.18
2023-04-18T23:10:43.476Z,12.45
2023-04-18T23:12:48.505Z,12.90
2023-04-18T23:14:53.661Z,14.05
2023-04-18T23:16:58.856Z,14.27
2023-04-18T23:19:04.323Z,13.38
2023-04-18T23:21:10.898Z,13.52
2023-04-18T23:23:15.851Z,11.23
2023-04-18T23:25:23.525Z,12.32
2023-04-18T23:27:31.421Z,14.07
2023-04-18T23:29:41.850Z,13.48
2023-04-18T23:31:48.280Z,13.98
2023-04-18T23:33:53.352Z,14.20
2023-04-18T23:35:58.447Z,13.55
2023-04-18T23:38:03.719Z,12.50
2023-04-18T23:40:11.333Z,13.70
2023-04-18T23:42:20.662Z,13.20
2023-04-18T23:44:27.647Z,13.77
2023-04-18T23:46:34.389Z,12.95
2023-04-18T23:48:42.208Z,13.23
2023-04-18T23:50:49.537Z,14.68
2023-04-18T23:52:54.748Z,13.85
2023-04-18T23:55:02.739Z,13.68
2023-04-18T23:57:09.208Z,16.88
2023-04-18T23:59:19.815Z,14.38
